Scroll down
FLIGHT INFORMATION
Boeing

BOE810

At Arrival Gate

KRDD
 KTVL
DATE: 2020-08-10
GATE:  -
GATE DEPARTURE: 23:06
TAKEOFF: 23:11
DATE: 2020-08-10
GATE:  -
LANDING: 23:47
GATE ARRIVAL: 23:50
FLIGHT DATA
Crew: 
Speed: 
416 kts
Altitude: 
17,459 ft
Stage Length: 
143.8 nm
Block Time: 
0.7 hrs
Flight Time: 
0.6 hrs
Fuel Used: 
3,928 lb
Cleared Route: KRDD KBLU KTRK KTVL
TRACK DATA
50,000 ft 1,000 kts
AIRCRAFT INFO AND CUMULATIVE STATS
Aircraft Type: 
B736
Registration: 
SELCAL: 
NULL
MSN/LN: 
28296 / 21
Operator: 
Total Flights: 
5
Total Block Time: 
7.9 hrs
Total Flight Time: 
6.8 hrs
Total Fuel Used: 
38,293 lb
DATALINK LOG | Newest first | Current as of: 2022-08-19 17:00:29
LABEL SEQUENCE CONTENT Dn/Up
QD551223:50 6.4▼ Dn
QC521023:47▼ Dn
QB153623:11▼ Dn
QA113323:06 10.3▼ Dn
2U4852KTVL 102153Z AUTO 18012KT 10SM CLR 26/10 A3020 RMK AO2 LTG DSNT NW SLP163 T02560100▲ Up
2U4852KRDD 102153Z VRB03KT 10SM CLR 42/06 A2974 RMK AO2 SLP062 T04220061▲ Up
2S5214KRDD KTVL▼ Dn
A35012CLEARED TO KTVL VIA KBLU KTRK. SQUAWK .▲ Up
Q04911[LINK ACK]▲ Up
Q04911[LINK TEST]▼ Dn


AIRCRAFT HISTORY
FLIGHT DATE FLIGHT NO. ORIGIN DESTINATION CLEARED ROUTE BLOCK TIME FLIGHT TIME FUEL USED PILOT
2020-08-10BOE810KRDD KTVL KRDD KBLU KTRK KTVL0.7 hrs0.6 hrs3,928 lbEphedrin
2020-07-28BOE728KBUR KRDD KBUR CSTRO RBL KRDD1.5 hrs1.3 hrs7,803 lbEphedrin
2020-06-29BOE628KDEN KBUR KDEN BRKEM WAKIR TUULO HLTON MTSUI BAYLR BOBBA TEHRU WELUM NIPIY KREME DNUTT JOHHN BASAL DYVER CHKNZ KOPLE PMD JANNY PUCCK ELMRR WABBT SILEX RW082.2 hrs2 hrs10,204 lbKyle Weber
2020-02-18BOE18KJAC KDEN 1.6 hrs1.2 hrs6,736 lbCharles Harris
2020-01-26BOE26KRNT KJAC 1.9 hrs1.6 hrs9,621 lbCharles Harris